sensor_id;sensor_type;location;lat;lon;timestamp;P1;durP1;ratioP1;P2;durP2;ratioP2
49540;SDS011;35432;43.566;1.398;2023-01-19T00:00:58;7.07;;;1.80;;
49540;SDS011;35432;43.566;1.398;2023-01-19T00:03:23;5.75;;;2.00;;
49540;SDS011;35432;43.566;1.398;2023-01-19T00:05:49;7.23;;;2.13;;
49540;SDS011;35432;43.566;1.398;2023-01-19T00:08:14;7.23;;;2.20;;
49540;SDS011;35432;43.566;1.398;2023-01-19T00:10:44;5.30;;;1.98;;
49540;SDS011;35432;43.566;1.398;2023-01-19T00:13:12;5.68;;;2.30;;
49540;SDS011;35432;43.566;1.398;2023-01-19T00:15:38;7.67;;;1.93;;
49540;SDS011;35432;43.566;1.398;2023-01-19T00:18:04;6.53;;;2.00;;
49540;SDS011;35432;43.566;1.398;2023-01-19T00:20:29;5.27;;;1.73;;
49540;SDS011;35432;43.566;1.398;2023-01-19T00:22:56;7.35;;;2.00;;
49540;SDS011;35432;43.566;1.398;2023-01-19T00:25:22;6.13;;;1.80;;
49540;SDS011;35432;43.566;1.398;2023-01-19T00:27:47;5.43;;;1.90;;
49540;SDS011;35432;43.566;1.398;2023-01-19T00:30:16;7.28;;;1.95;;
49540;SDS011;35432;43.566;1.398;2023-01-19T00:32:41;5.63;;;2.17;;
49540;SDS011;35432;43.566;1.398;2023-01-19T00:35:07;5.90;;;1.80;;
49540;SDS011;35432;43.566;1.398;2023-01-19T00:37:32;6.07;;;1.83;;
49540;SDS011;35432;43.566;1.398;2023-01-19T00:39:58;7.57;;;2.13;;
49540;SDS011;35432;43.566;1.398;2023-01-19T00:42:23;6.23;;;1.90;;
49540;SDS011;35432;43.566;1.398;2023-01-19T00:45:04;6.80;;;1.83;;
49540;SDS011;35432;43.566;1.398;2023-01-19T00:47:31;7.25;;;1.98;;
49540;SDS011;35432;43.566;1.398;2023-01-19T00:49:57;6.47;;;1.70;;
49540;SDS011;35432;43.566;1.398;2023-01-19T00:52:22;5.63;;;1.43;;
49540;SDS011;35432;43.566;1.398;2023-01-19T00:54:48;5.93;;;1.80;;
49540;SDS011;35432;43.566;1.398;2023-01-19T00:57:14;5.53;;;1.17;;
49540;SDS011;35432;43.566;1.398;2023-01-19T00:59:39;6.30;;;1.30;;
49540;SDS011;35432;43.566;1.398;2023-01-19T01:02:05;4.70;;;1.20;;
49540;SDS011;35432;43.566;1.398;2023-01-19T01:04:30;6.20;;;1.70;;
49540;SDS011;35432;43.566;1.398;2023-01-19T01:06:56;4.63;;;0.97;;
49540;SDS011;35432;43.566;1.398;2023-01-19T01:09:21;3.50;;;0.60;;
49540;SDS011;35432;43.566;1.398;2023-01-19T01:11:47;5.60;;;0.80;;
49540;SDS011;35432;43.566;1.398;2023-01-19T01:14:12;5.17;;;0.70;;
49540;SDS011;35432;43.566;1.398;2023-01-19T01:16:38;4.63;;;0.77;;
49540;SDS011;35432;43.566;1.398;2023-01-19T01:19:04;9.50;;;2.50;;
49540;SDS011;35432;43.566;1.398;2023-01-19T01:21:29;5.03;;;1.23;;
49540;SDS011;35432;43.566;1.398;2023-01-19T01:23:55;4.77;;;0.80;;
49540;SDS011;35432;43.566;1.398;2023-01-19T01:26:20;4.50;;;0.80;;
49540;SDS011;35432;43.566;1.398;2023-01-19T01:28:45;4.07;;;0.63;;
49540;SDS011;35432;43.566;1.398;2023-01-19T01:31:11;5.87;;;0.90;;
49540;SDS011;35432;43.566;1.398;2023-01-19T01:33:36;4.60;;;0.60;;
49540;SDS011;35432;43.566;1.398;2023-01-19T01:36:02;4.38;;;0.70;;
49540;SDS011;35432;43.566;1.398;2023-01-19T01:38:28;6.37;;;1.30;;
49540;SDS011;35432;43.566;1.398;2023-01-19T01:40:53;3.70;;;0.70;;
49540;SDS011;35432;43.566;1.398;2023-01-19T01:43:18;5.13;;;0.80;;
49540;SDS011;35432;43.566;1.398;2023-01-19T01:45:47;4.83;;;0.80;;
49540;SDS011;35432;43.566;1.398;2023-01-19T01:53:42;5.37;;;1.30;;
49540;SDS011;35432;43.566;1.398;2023-01-19T01:56:12;7.45;;;0.90;;
49540;SDS011;35432;43.566;1.398;2023-01-19T01:58:41;3.58;;;0.77;;
49540;SDS011;35432;43.566;1.398;2023-01-19T02:01:08;7.60;;;1.98;;
49540;SDS011;35432;43.566;1.398;2023-01-19T02:03:52;3.85;;;0.70;;
49540;SDS011;35432;43.566;1.398;2023-01-19T02:06:19;8.80;;;1.50;;
49540;SDS011;35432;43.566;1.398;2023-01-19T02:08:51;5.55;;;1.00;;
49540;SDS011;35432;43.566;1.398;2023-01-19T02:11:49;5.15;;;1.30;;
49540;SDS011;35432;43.566;1.398;2023-01-19T02:14:33;4.78;;;0.70;;
49540;SDS011;35432;43.566;1.398;2023-01-19T02:17:01;3.85;;;0.73;;
49540;SDS011;35432;43.566;1.398;2023-01-19T02:19:29;4.83;;;0.80;;
49540;SDS011;35432;43.566;1.398;2023-01-19T02:22:46;2.95;;;0.57;;
49540;SDS011;35432;43.566;1.398;2023-01-19T02:24:54;3.33;;;0.60;;
49540;SDS011;35432;43.566;1.398;2023-01-19T02:27:20;3.20;;;0.50;;
49540;SDS011;35432;43.566;1.398;2023-01-19T02:29:47;2.97;;;0.77;;
49540;SDS011;35432;43.566;1.398;2023-01-19T02:32:12;3.20;;;0.47;;
49540;SDS011;35432;43.566;1.398;2023-01-19T02:34:38;3.93;;;0.60;;
49540;SDS011;35432;43.566;1.398;2023-01-19T02:37:11;3.63;;;0.70;;
49540;SDS011;35432;43.566;1.398;2023-01-19T02:39:40;3.30;;;0.60;;
49540;SDS011;35432;43.566;1.398;2023-01-19T02:42:14;2.72;;;0.45;;
49540;SDS011;35432;43.566;1.398;2023-01-19T02:44:47;6.22;;;0.63;;
49540;SDS011;35432;43.566;1.398;2023-01-19T02:47:14;2.90;;;0.60;;
49540;SDS011;35432;43.566;1.398;2023-01-19T02:49:40;3.17;;;0.75;;
49540;SDS011;35432;43.566;1.398;2023-01-19T02:52:06;4.23;;;0.60;;
49540;SDS011;35432;43.566;1.398;2023-01-19T02:54:52;3.10;;;0.60;;
49540;SDS011;35432;43.566;1.398;2023-01-19T03:00:16;3.72;;;0.45;;
49540;SDS011;35432;43.566;1.398;2023-01-19T03:11:02;3.33;;;0.50;;
49540;SDS011;35432;43.566;1.398;2023-01-19T03:13:39;3.92;;;0.60;;
49540;SDS011;35432;43.566;1.398;2023-01-19T03:21:41;1.92;;;0.45;;
49540;SDS011;35432;43.566;1.398;2023-01-19T03:24:11;4.10;;;0.57;;
49540;SDS011;35432;43.566;1.398;2023-01-19T03:26:40;2.40;;;0.40;;
49540;SDS011;35432;43.566;1.398;2023-01-19T03:29:10;3.05;;;0.60;;
49540;SDS011;35432;43.566;1.398;2023-01-19T03:31:39;3.80;;;0.43;;
49540;SDS011;35432;43.566;1.398;2023-01-19T03:34:08;3.40;;;0.50;;
49540;SDS011;35432;43.566;1.398;2023-01-19T03:36:49;5.73;;;0.60;;
49540;SDS011;35432;43.566;1.398;2023-01-19T03:39:21;3.00;;;0.40;;
49540;SDS011;35432;43.566;1.398;2023-01-19T03:41:49;4.15;;;0.43;;
49540;SDS011;35432;43.566;1.398;2023-01-19T03:44:18;4.95;;;0.50;;
49540;SDS011;35432;43.566;1.398;2023-01-19T03:46:44;2.17;;;0.50;;
49540;SDS011;35432;43.566;1.398;2023-01-19T03:49:11;4.25;;;0.43;;
49540;SDS011;35432;43.566;1.398;2023-01-19T03:51:37;4.03;;;0.47;;
49540;SDS011;35432;43.566;1.398;2023-01-19T03:54:04;3.30;;;0.30;;
49540;SDS011;35432;43.566;1.398;2023-01-19T03:56:31;3.00;;;0.40;;
49540;SDS011;35432;43.566;1.398;2023-01-19T03:58:56;2.45;;;0.40;;
49540;SDS011;35432;43.566;1.398;2023-01-19T04:01:22;4.90;;;0.40;;
49540;SDS011;35432;43.566;1.398;2023-01-19T04:03:49;3.15;;;0.50;;
49540;SDS011;35432;43.566;1.398;2023-01-19T04:06:16;3.10;;;0.30;;
49540;SDS011;35432;43.566;1.398;2023-01-19T04:08:42;2.95;;;0.40;;
49540;SDS011;35432;43.566;1.398;2023-01-19T04:11:07;1.97;;;0.37;;
49540;SDS011;35432;43.566;1.398;2023-01-19T04:13:34;1.90;;;0.40;;
49540;SDS011;35432;43.566;1.398;2023-01-19T04:16:00;2.03;;;0.30;;
49540;SDS011;35432;43.566;1.398;2023-01-19T04:18:30;1.80;;;0.30;;
49540;SDS011;35432;43.566;1.398;2023-01-19T04:20:59;4.15;;;0.73;;
49540;SDS011;35432;43.566;1.398;2023-01-19T04:23:26;3.25;;;0.50;;
49540;SDS011;35432;43.566;1.398;2023-01-19T04:25:58;5.00;;;0.47;;
49540;SDS011;35432;43.566;1.398;2023-01-19T04:28:24;2.65;;;0.30;;
49540;SDS011;35432;43.566;1.398;2023-01-19T04:30:50;2.00;;;0.30;;
49540;SDS011;35432;43.566;1.398;2023-01-19T04:33:19;4.60;;;1.80;;
49540;SDS011;35432;43.566;1.398;2023-01-19T04:35:45;2.45;;;0.47;;
49540;SDS011;35432;43.566;1.398;2023-01-19T04:38:11;2.43;;;0.40;;
49540;SDS011;35432;43.566;1.398;2023-01-19T04:40:37;2.58;;;0.40;;
49540;SDS011;35432;43.566;1.398;2023-01-19T04:43:02;3.07;;;0.53;;
49540;SDS011;35432;43.566;1.398;2023-01-19T04:45:28;5.10;;;0.50;;
49540;SDS011;35432;43.566;1.398;2023-01-19T04:47:54;2.50;;;0.40;;
49540;SDS011;35432;43.566;1.398;2023-01-19T04:50:19;3.53;;;0.60;;
49540;SDS011;35432;43.566;1.398;2023-01-19T04:52:45;4.27;;;0.40;;
49540;SDS011;35432;43.566;1.398;2023-01-19T04:55:11;4.15;;;0.60;;
49540;SDS011;35432;43.566;1.398;2023-01-19T04:57:37;3.30;;;0.50;;
49540;SDS011;35432;43.566;1.398;2023-01-19T05:00:03;3.97;;;0.53;;
49540;SDS011;35432;43.566;1.398;2023-01-19T05:02:30;3.42;;;0.60;;
49540;SDS011;35432;43.566;1.398;2023-01-19T05:04:56;3.17;;;0.60;;
49540;SDS011;35432;43.566;1.398;2023-01-19T05:07:21;4.05;;;0.60;;
49540;SDS011;35432;43.566;1.398;2023-01-19T05:09:47;3.73;;;0.90;;
49540;SDS011;35432;43.566;1.398;2023-01-19T05:12:12;3.17;;;0.53;;
49540;SDS011;35432;43.566;1.398;2023-01-19T05:14:38;2.83;;;0.43;;
49540;SDS011;35432;43.566;1.398;2023-01-19T05:17:03;4.78;;;0.70;;
49540;SDS011;35432;43.566;1.398;2023-01-19T05:19:29;3.93;;;0.50;;
49540;SDS011;35432;43.566;1.398;2023-01-19T05:21:54;6.07;;;0.90;;
49540;SDS011;35432;43.566;1.398;2023-01-19T05:24:20;3.77;;;0.70;;
49540;SDS011;35432;43.566;1.398;2023-01-19T05:26:45;4.38;;;0.70;;
49540;SDS011;35432;43.566;1.398;2023-01-19T05:29:11;2.67;;;0.50;;
49540;SDS011;35432;43.566;1.398;2023-01-19T05:31:36;3.30;;;0.70;;
49540;SDS011;35432;43.566;1.398;2023-01-19T05:34:02;2.63;;;0.60;;
49540;SDS011;35432;43.566;1.398;2023-01-19T05:36:28;3.08;;;0.60;;
49540;SDS011;35432;43.566;1.398;2023-01-19T05:38:53;4.80;;;0.70;;
49540;SDS011;35432;43.566;1.398;2023-01-19T05:41:19;5.28;;;1.02;;
49540;SDS011;35432;43.566;1.398;2023-01-19T05:43:44;3.77;;;1.07;;
49540;SDS011;35432;43.566;1.398;2023-01-19T05:46:10;2.70;;;0.73;;
49540;SDS011;35432;43.566;1.398;2023-01-19T05:48:35;3.95;;;1.00;;
49540;SDS011;35432;43.566;1.398;2023-01-19T05:51:01;3.23;;;0.97;;
49540;SDS011;35432;43.566;1.398;2023-01-19T05:53:27;3.75;;;0.60;;
49540;SDS011;35432;43.566;1.398;2023-01-19T05:55:57;3.22;;;0.75;;
49540;SDS011;35432;43.566;1.398;2023-01-19T05:58:24;3.83;;;0.80;;
49540;SDS011;35432;43.566;1.398;2023-01-19T06:00:49;3.92;;;0.80;;
49540;SDS011;35432;43.566;1.398;2023-01-19T06:03:15;2.83;;;0.67;;
49540;SDS011;35432;43.566;1.398;2023-01-19T06:05:40;4.47;;;0.80;;
49540;SDS011;35432;43.566;1.398;2023-01-19T06:08:05;2.77;;;0.70;;
49540;SDS011;35432;43.566;1.398;2023-01-19T06:10:31;3.00;;;0.60;;
49540;SDS011;35432;43.566;1.398;2023-01-19T06:12:56;2.97;;;0.70;;
49540;SDS011;35432;43.566;1.398;2023-01-19T06:15:22;5.20;;;0.80;;
49540;SDS011;35432;43.566;1.398;2023-01-19T06:17:47;3.07;;;0.70;;
49540;SDS011;35432;43.566;1.398;2023-01-19T06:20:13;3.10;;;0.67;;
49540;SDS011;35432;43.566;1.398;2023-01-19T06:22:38;3.50;;;1.02;;
49540;SDS011;35432;43.566;1.398;2023-01-19T06:25:04;3.37;;;0.67;;
49540;SDS011;35432;43.566;1.398;2023-01-19T06:27:29;4.63;;;0.60;;
49540;SDS011;35432;43.566;1.398;2023-01-19T06:29:55;4.07;;;0.68;;
49540;SDS011;35432;43.566;1.398;2023-01-19T06:32:20;3.30;;;0.47;;
49540;SDS011;35432;43.566;1.398;2023-01-19T06:34:45;2.80;;;0.70;;
49540;SDS011;35432;43.566;1.398;2023-01-19T06:37:11;4.17;;;0.80;;
49540;SDS011;35432;43.566;1.398;2023-01-19T06:39:36;4.28;;;0.60;;
49540;SDS011;35432;43.566;1.398;2023-01-19T06:42:05;3.27;;;0.70;;
49540;SDS011;35432;43.566;1.398;2023-01-19T06:44:31;3.30;;;0.75;;
49540;SDS011;35432;43.566;1.398;2023-01-19T06:46:57;4.90;;;0.63;;
49540;SDS011;35432;43.566;1.398;2023-01-19T06:49:22;2.63;;;0.60;;
49540;SDS011;35432;43.566;1.398;2023-01-19T06:51:48;2.90;;;0.50;;
49540;SDS011;35432;43.566;1.398;2023-01-19T06:54:14;3.05;;;0.60;;
49540;SDS011;35432;43.566;1.398;2023-01-19T06:56:39;2.63;;;0.60;;
49540;SDS011;35432;43.566;1.398;2023-01-19T06:59:05;3.28;;;0.70;;
49540;SDS011;35432;43.566;1.398;2023-01-19T07:01:30;2.60;;;0.53;;
49540;SDS011;35432;43.566;1.398;2023-01-19T07:03:56;3.28;;;0.70;;
49540;SDS011;35432;43.566;1.398;2023-01-19T07:06:22;4.80;;;1.00;;
49540;SDS011;35432;43.566;1.398;2023-01-19T07:08:47;4.90;;;0.80;;
49540;SDS011;35432;43.566;1.398;2023-01-19T07:11:13;3.33;;;0.80;;
49540;SDS011;35432;43.566;1.398;2023-01-19T07:13:39;4.33;;;0.80;;
49540;SDS011;35432;43.566;1.398;2023-01-19T07:18:31;3.10;;;0.73;;
49540;SDS011;35432;43.566;1.398;2023-01-19T07:20:57;3.77;;;1.10;;
49540;SDS011;35432;43.566;1.398;2023-01-19T07:23:23;3.70;;;0.80;;
49540;SDS011;35432;43.566;1.398;2023-01-19T07:25:48;4.47;;;0.63;;
49540;SDS011;35432;43.566;1.398;2023-01-19T07:28:14;5.77;;;0.87;;
49540;SDS011;35432;43.566;1.398;2023-01-19T07:30:43;3.85;;;1.02;;
49540;SDS011;35432;43.566;1.398;2023-01-19T07:33:10;3.42;;;0.75;;
49540;SDS011;35432;43.566;1.398;2023-01-19T07:35:36;2.83;;;0.60;;
49540;SDS011;35432;43.566;1.398;2023-01-19T07:38:01;4.93;;;0.73;;
49540;SDS011;35432;43.566;1.398;2023-01-19T07:40:27;3.60;;;0.80;;
49540;SDS011;35432;43.566;1.398;2023-01-19T07:42:52;4.30;;;0.70;;
49540;SDS011;35432;43.566;1.398;2023-01-19T07:45:18;3.20;;;0.77;;
49540;SDS011;35432;43.566;1.398;2023-01-19T07:47:45;3.17;;;0.63;;
49540;SDS011;35432;43.566;1.398;2023-01-19T07:50:13;4.38;;;1.20;;
49540;SDS011;35432;43.566;1.398;2023-01-19T07:52:40;4.20;;;0.95;;
49540;SDS011;35432;43.566;1.398;2023-01-19T07:55:06;5.28;;;1.17;;
49540;SDS011;35432;43.566;1.398;2023-01-19T07:57:32;6.25;;;1.75;;
49540;SDS011;35432;43.566;1.398;2023-01-19T07:59:57;4.60;;;1.20;;
49540;SDS011;35432;43.566;1.398;2023-01-19T08:02:22;4.87;;;1.57;;
49540;SDS011;35432;43.566;1.398;2023-01-19T08:04:48;7.00;;;2.00;;
49540;SDS011;35432;43.566;1.398;2023-01-19T08:07:13;7.88;;;2.00;;
49540;SDS011;35432;43.566;1.398;2023-01-19T08:09:39;6.00;;;1.93;;
49540;SDS011;35432;43.566;1.398;2023-01-19T08:12:04;6.10;;;1.77;;
49540;SDS011;35432;43.566;1.398;2023-01-19T08:14:30;5.87;;;1.87;;
49540;SDS011;35432;43.566;1.398;2023-01-19T08:17:01;7.83;;;1.87;;
49540;SDS011;35432;43.566;1.398;2023-01-19T08:19:28;7.80;;;2.22;;
49540;SDS011;35432;43.566;1.398;2023-01-19T08:21:53;5.87;;;1.90;;
49540;SDS011;35432;43.566;1.398;2023-01-19T08:24:20;8.75;;;2.55;;
49540;SDS011;35432;43.566;1.398;2023-01-19T08:26:49;6.38;;;2.60;;
49540;SDS011;35432;43.566;1.398;2023-01-19T08:29:21;6.47;;;2.35;;
49540;SDS011;35432;43.566;1.398;2023-01-19T08:31:47;7.57;;;2.27;;
49540;SDS011;35432;43.566;1.398;2023-01-19T08:34:12;4.22;;;1.60;;
49540;SDS011;35432;43.566;1.398;2023-01-19T08:36:38;5.20;;;1.40;;
49540;SDS011;35432;43.566;1.398;2023-01-19T08:39:03;5.93;;;1.30;;
49540;SDS011;35432;43.566;1.398;2023-01-19T08:41:29;4.67;;;1.40;;
49540;SDS011;35432;43.566;1.398;2023-01-19T08:43:54;5.10;;;1.40;;
49540;SDS011;35432;43.566;1.398;2023-01-19T08:46:20;4.97;;;1.53;;
49540;SDS011;35432;43.566;1.398;2023-01-19T08:48:45;5.57;;;1.60;;
49540;SDS011;35432;43.566;1.398;2023-01-19T08:51:15;5.97;;;1.42;;
49540;SDS011;35432;43.566;1.398;2023-01-19T08:53:41;4.85;;;1.35;;
49540;SDS011;35432;43.566;1.398;2023-01-19T08:56:07;4.00;;;0.93;;
49540;SDS011;35432;43.566;1.398;2023-01-19T08:58:37;4.17;;;0.80;;
49540;SDS011;35432;43.566;1.398;2023-01-19T09:01:04;3.95;;;0.90;;
49540;SDS011;35432;43.566;1.398;2023-01-19T09:03:30;5.57;;;1.20;;
49540;SDS011;35432;43.566;1.398;2023-01-19T09:05:55;5.60;;;1.20;;
49540;SDS011;35432;43.566;1.398;2023-01-19T09:08:21;5.13;;;1.00;;
49540;SDS011;35432;43.566;1.398;2023-01-19T09:10:47;4.65;;;1.02;;
49540;SDS011;35432;43.566;1.398;2023-01-19T09:13:14;3.43;;;1.10;;
49540;SDS011;35432;43.566;1.398;2023-01-19T09:15:41;4.97;;;0.80;;
49540;SDS011;35432;43.566;1.398;2023-01-19T09:18:08;3.78;;;0.80;;
49540;SDS011;35432;43.566;1.398;2023-01-19T09:20:37;4.07;;;0.70;;
49540;SDS011;35432;43.566;1.398;2023-01-19T09:23:04;5.85;;;0.90;;
49540;SDS011;35432;43.566;1.398;2023-01-19T09:25:30;4.67;;;1.00;;
49540;SDS011;35432;43.566;1.398;2023-01-19T09:27:58;5.28;;;0.90;;
49540;SDS011;35432;43.566;1.398;2023-01-19T09:30:24;5.20;;;0.90;;
49540;SDS011;35432;43.566;1.398;2023-01-19T09:32:49;5.13;;;1.10;;
49540;SDS011;35432;43.566;1.398;2023-01-19T09:35:14;6.20;;;1.00;;
49540;SDS011;35432;43.566;1.398;2023-01-19T09:37:44;3.80;;;0.80;;
49540;SDS011;35432;43.566;1.398;2023-01-19T09:40:10;3.20;;;0.98;;
49540;SDS011;35432;43.566;1.398;2023-01-19T09:45:03;3.70;;;0.50;;
49540;SDS011;35432;43.566;1.398;2023-01-19T09:47:31;4.80;;;0.60;;
49540;SDS011;35432;43.566;1.398;2023-01-19T09:50:00;5.00;;;1.00;;
49540;SDS011;35432;43.566;1.398;2023-01-19T09:52:30;3.67;;;0.95;;
49540;SDS011;35432;43.566;1.398;2023-01-19T09:55:00;4.57;;;0.98;;
49540;SDS011;35432;43.566;1.398;2023-01-19T09:57:26;3.53;;;0.90;;
49540;SDS011;35432;43.566;1.398;2023-01-19T09:59:52;4.82;;;0.85;;
49540;SDS011;35432;43.566;1.398;2023-01-19T10:05:31;4.60;;;0.70;;
49540;SDS011;35432;43.566;1.398;2023-01-19T10:10:46;4.40;;;0.98;;
49540;SDS011;35432;43.566;1.398;2023-01-19T10:18:47;6.18;;;1.10;;
49540;SDS011;35432;43.566;1.398;2023-01-19T10:21:37;5.23;;;1.67;;
49540;SDS011;35432;43.566;1.398;2023-01-19T10:26:47;4.75;;;1.10;;
49540;SDS011;35432;43.566;1.398;2023-01-19T10:29:30;7.05;;;1.60;;
49540;SDS011;35432;43.566;1.398;2023-01-19T10:34:47;4.43;;;1.10;;
49540;SDS011;35432;43.566;1.398;2023-01-19T10:37:16;4.55;;;0.60;;
49540;SDS011;35432;43.566;1.398;2023-01-19T10:39:50;4.53;;;0.40;;
49540;SDS011;35432;43.566;1.398;2023-01-19T10:42:18;3.00;;;0.30;;
49540;SDS011;35432;43.566;1.398;2023-01-19T10:44:44;3.88;;;0.65;;
49540;SDS011;35432;43.566;1.398;2023-01-19T10:47:17;5.73;;;0.60;;
49540;SDS011;35432;43.566;1.398;2023-01-19T10:49:44;5.13;;;1.30;;
49540;SDS011;35432;43.566;1.398;2023-01-19T10:55:03;3.22;;;0.60;;
49540;SDS011;35432;43.566;1.398;2023-01-19T10:57:31;5.53;;;0.70;;
49540;SDS011;35432;43.566;1.398;2023-01-19T11:00:03;3.47;;;0.50;;
49540;SDS011;35432;43.566;1.398;2023-01-19T11:02:31;6.93;;;0.70;;
49540;SDS011;35432;43.566;1.398;2023-01-19T11:05:01;3.60;;;0.80;;
49540;SDS011;35432;43.566;1.398;2023-01-19T11:07:47;3.88;;;0.70;;
49540;SDS011;35432;43.566;1.398;2023-01-19T11:13:21;6.28;;;1.05;;
49540;SDS011;35432;43.566;1.398;2023-01-19T11:18:37;4.17;;;0.87;;
49540;SDS011;35432;43.566;1.398;2023-01-19T11:21:10;4.30;;;0.80;;
49540;SDS011;35432;43.566;1.398;2023-01-19T11:23:48;4.13;;;0.70;;
49540;SDS011;35432;43.566;1.398;2023-01-19T11:26:29;3.55;;;0.60;;
49540;SDS011;35432;43.566;1.398;2023-01-19T11:29:24;4.75;;;0.80;;
49540;SDS011;35432;43.566;1.398;2023-01-19T11:31:51;6.20;;;1.17;;
49540;SDS011;35432;43.566;1.398;2023-01-19T11:34:30;7.35;;;0.98;;
49540;SDS011;35432;43.566;1.398;2023-01-19T11:39:31;6.55;;;1.02;;
49540;SDS011;35432;43.566;1.398;2023-01-19T11:42:10;10.68;;;1.50;;
49540;SDS011;35432;43.566;1.398;2023-01-19T11:47:39;5.20;;;0.88;;
49540;SDS011;35432;43.566;1.398;2023-01-19T11:50:10;7.55;;;1.00;;
49540;SDS011;35432;43.566;1.398;2023-01-19T11:52:54;5.22;;;0.70;;
49540;SDS011;35432;43.566;1.398;2023-01-19T11:58:18;5.07;;;0.97;;
49540;SDS011;35432;43.566;1.398;2023-01-19T12:03:32;5.40;;;0.60;;
49540;SDS011;35432;43.566;1.398;2023-01-19T12:06:05;4.43;;;0.85;;
49540;SDS011;35432;43.566;1.398;2023-01-19T12:08:38;6.30;;;0.93;;
49540;SDS011;35432;43.566;1.398;2023-01-19T12:11:05;8.07;;;0.90;;
49540;SDS011;35432;43.566;1.398;2023-01-19T12:13:35;4.93;;;0.75;;
49540;SDS011;35432;43.566;1.398;2023-01-19T12:16:06;5.70;;;0.73;;
49540;SDS011;35432;43.566;1.398;2023-01-19T12:18:38;6.57;;;1.00;;
49540;SDS011;35432;43.566;1.398;2023-01-19T12:21:07;4.87;;;0.60;;
49540;SDS011;35432;43.566;1.398;2023-01-19T12:26:19;4.82;;;0.50;;
49540;SDS011;35432;43.566;1.398;2023-01-19T12:29:20;6.78;;;0.50;;
49540;SDS011;35432;43.566;1.398;2023-01-19T12:34:59;2.75;;;0.40;;
49540;SDS011;35432;43.566;1.398;2023-01-19T12:37:30;5.68;;;0.63;;
49540;SDS011;35432;43.566;1.398;2023-01-19T12:42:56;5.28;;;0.63;;
49540;SDS011;35432;43.566;1.398;2023-01-19T12:45:27;6.17;;;1.20;;
49540;SDS011;35432;43.566;1.398;2023-01-19T12:47:56;8.13;;;1.48;;
49540;SDS011;35432;43.566;1.398;2023-01-19T12:50:22;10.57;;;1.02;;
49540;SDS011;35432;43.566;1.398;2023-01-19T12:52:59;4.60;;;0.80;;
49540;SDS011;35432;43.566;1.398;2023-01-19T12:55:28;4.13;;;0.93;;
49540;SDS011;35432;43.566;1.398;2023-01-19T13:03:04;4.65;;;1.08;;
49540;SDS011;35432;43.566;1.398;2023-01-19T13:05:54;6.37;;;1.20;;
49540;SDS011;35432;43.566;1.398;2023-01-19T13:08:21;7.55;;;1.42;;
49540;SDS011;35432;43.566;1.398;2023-01-19T13:15:51;6.53;;;0.80;;
49540;SDS011;35432;43.566;1.398;2023-01-19T13:20:56;5.60;;;1.20;;
49540;SDS011;35432;43.566;1.398;2023-01-19T13:23:50;7.35;;;0.70;;
49540;SDS011;35432;43.566;1.398;2023-01-19T13:26:17;7.75;;;0.95;;
49540;SDS011;35432;43.566;1.398;2023-01-19T13:28:45;7.97;;;1.25;;
49540;SDS011;35432;43.566;1.398;2023-01-19T13:31:16;6.25;;;0.85;;
49540;SDS011;35432;43.566;1.398;2023-01-19T13:33:43;5.53;;;0.70;;
49540;SDS011;35432;43.566;1.398;2023-01-19T13:36:32;7.03;;;1.38;;
49540;SDS011;35432;43.566;1.398;2023-01-19T13:39:06;6.65;;;0.90;;
49540;SDS011;35432;43.566;1.398;2023-01-19T13:41:39;7.38;;;1.05;;
49540;SDS011;35432;43.566;1.398;2023-01-19T13:44:22;4.67;;;0.87;;
49540;SDS011;35432;43.566;1.398;2023-01-19T13:46:51;5.07;;;1.00;;
49540;SDS011;35432;43.566;1.398;2023-01-19T13:54:30;8.83;;;1.70;;
49540;SDS011;35432;43.566;1.398;2023-01-19T13:56:55;5.63;;;1.00;;
49540;SDS011;35432;43.566;1.398;2023-01-19T13:59:20;6.37;;;0.97;;
49540;SDS011;35432;43.566;1.398;2023-01-19T14:01:46;3.50;;;0.70;;
49540;SDS011;35432;43.566;1.398;2023-01-19T14:04:26;6.03;;;1.07;;
49540;SDS011;35432;43.566;1.398;2023-01-19T14:06:52;10.68;;;2.35;;
49540;SDS011;35432;43.566;1.398;2023-01-19T14:09:21;10.00;;;1.50;;
49540;SDS011;35432;43.566;1.398;2023-01-19T14:12:02;11.88;;;2.35;;
49540;SDS011;35432;43.566;1.398;2023-01-19T14:14:30;11.57;;;3.57;;
49540;SDS011;35432;43.566;1.398;2023-01-19T14:16:56;9.10;;;1.60;;
49540;SDS011;35432;43.566;1.398;2023-01-19T14:19:22;7.00;;;1.70;;
49540;SDS011;35432;43.566;1.398;2023-01-19T14:21:58;8.60;;;1.90;;
49540;SDS011;35432;43.566;1.398;2023-01-19T14:24:27;6.63;;;1.75;;
49540;SDS011;35432;43.566;1.398;2023-01-19T14:27:14;5.47;;;1.63;;
49540;SDS011;35432;43.566;1.398;2023-01-19T14:29:44;6.20;;;1.57;;
49540;SDS011;35432;43.566;1.398;2023-01-19T14:32:18;6.10;;;1.40;;
49540;SDS011;35432;43.566;1.398;2023-01-19T14:34:47;5.78;;;1.10;;
49540;SDS011;35432;43.566;1.398;2023-01-19T14:42:30;8.30;;;2.27;;
49540;SDS011;35432;43.566;1.398;2023-01-19T14:44:59;8.63;;;2.25;;
49540;SDS011;35432;43.566;1.398;2023-01-19T14:47:32;9.75;;;1.55;;
49540;SDS011;35432;43.566;1.398;2023-01-19T14:50:08;7.22;;;1.40;;
49540;SDS011;35432;43.566;1.398;2023-01-19T14:53:03;7.53;;;2.20;;
49540;SDS011;35432;43.566;1.398;2023-01-19T14:55:35;39.40;;;14.67;;
49540;SDS011;35432;43.566;1.398;2023-01-19T14:58:10;7.80;;;2.45;;
49540;SDS011;35432;43.566;1.398;2023-01-19T15:00:37;8.57;;;1.95;;
49540;SDS011;35432;43.566;1.398;2023-01-19T15:03:03;10.18;;;2.63;;
49540;SDS011;35432;43.566;1.398;2023-01-19T15:05:30;9.20;;;2.17;;
49540;SDS011;35432;43.566;1.398;2023-01-19T15:07:56;8.93;;;1.47;;
49540;SDS011;35432;43.566;1.398;2023-01-19T15:10:22;11.13;;;2.53;;
49540;SDS011;35432;43.566;1.398;2023-01-19T15:12:49;8.25;;;2.50;;
49540;SDS011;35432;43.566;1.398;2023-01-19T15:15:51;13.50;;;3.63;;
49540;SDS011;35432;43.566;1.398;2023-01-19T15:18:12;7.38;;;1.92;;
49540;SDS011;35432;43.566;1.398;2023-01-19T15:20:41;7.80;;;1.90;;
49540;SDS011;35432;43.566;1.398;2023-01-19T15:23:08;7.00;;;0.90;;
49540;SDS011;35432;43.566;1.398;2023-01-19T15:25:37;6.33;;;0.80;;
49540;SDS011;35432;43.566;1.398;2023-01-19T15:28:18;7.78;;;2.83;;
49540;SDS011;35432;43.566;1.398;2023-01-19T15:30:44;7.20;;;1.95;;
49540;SDS011;35432;43.566;1.398;2023-01-19T15:33:19;10.03;;;1.90;;
49540;SDS011;35432;43.566;1.398;2023-01-19T15:35:49;10.07;;;3.85;;
49540;SDS011;35432;43.566;1.398;2023-01-19T15:38:15;18.35;;;8.82;;
49540;SDS011;35432;43.566;1.398;2023-01-19T15:40:41;16.13;;;6.63;;
49540;SDS011;35432;43.566;1.398;2023-01-19T15:43:11;14.00;;;6.10;;
49540;SDS011;35432;43.566;1.398;2023-01-19T15:45:41;17.00;;;6.72;;
49540;SDS011;35432;43.566;1.398;2023-01-19T15:48:10;27.10;;;11.57;;
49540;SDS011;35432;43.566;1.398;2023-01-19T15:50:40;19.83;;;8.98;;
49540;SDS011;35432;43.566;1.398;2023-01-19T15:53:14;21.90;;;11.07;;
49540;SDS011;35432;43.566;1.398;2023-01-19T15:55:41;19.67;;;7.40;;
49540;SDS011;35432;43.566;1.398;2023-01-19T15:58:07;14.38;;;4.30;;
49540;SDS011;35432;43.566;1.398;2023-01-19T16:00:32;11.33;;;2.10;;
49540;SDS011;35432;43.566;1.398;2023-01-19T16:03:00;12.52;;;4.20;;
49540;SDS011;35432;43.566;1.398;2023-01-19T16:05:27;12.90;;;4.00;;
49540;SDS011;35432;43.566;1.398;2023-01-19T16:07:53;20.42;;;6.40;;
49540;SDS011;35432;43.566;1.398;2023-01-19T16:10:19;18.60;;;6.23;;
49540;SDS011;35432;43.566;1.398;2023-01-19T16:12:48;14.38;;;5.90;;
49540;SDS011;35432;43.566;1.398;2023-01-19T16:15:14;18.67;;;7.10;;
49540;SDS011;35432;43.566;1.398;2023-01-19T16:17:40;22.75;;;9.32;;
49540;SDS011;35432;43.566;1.398;2023-01-19T16:20:06;25.43;;;9.00;;
49540;SDS011;35432;43.566;1.398;2023-01-19T16:22:33;23.58;;;11.00;;
49540;SDS011;35432;43.566;1.398;2023-01-19T16:24:59;23.58;;;8.52;;
49540;SDS011;35432;43.566;1.398;2023-01-19T16:27:25;21.53;;;4.97;;
49540;SDS011;35432;43.566;1.398;2023-01-19T16:29:50;17.00;;;5.80;;